sensor_id;sensor_type;location;lat;lon;timestamp;P1;durP1;ratioP1;P2;durP2;ratioP2
14074;SDS011;12831;52.392;13.066;2024-01-16T00:01:48;7.22;;;2.67;;
14074;SDS011;12831;52.392;13.066;2024-01-16T00:04:15;6.53;;;2.83;;
14074;SDS011;12831;52.392;13.066;2024-01-16T00:06:41;13.80;;;3.40;;
14074;SDS011;12831;52.392;13.066;2024-01-16T00:09:10;7.28;;;3.05;;
14074;SDS011;12831;52.392;13.066;2024-01-16T00:11:39;7.55;;;3.60;;
14074;SDS011;12831;52.392;13.066;2024-01-16T00:14:05;5.47;;;3.38;;
14074;SDS011;12831;52.392;13.066;2024-01-16T00:16:31;12.55;;;3.63;;
14074;SDS011;12831;52.392;13.066;2024-01-16T00:18:57;9.48;;;4.18;;
14074;SDS011;12831;52.392;13.066;2024-01-16T00:21:24;12.05;;;3.30;;
14074;SDS011;12831;52.392;13.066;2024-01-16T00:23:50;7.13;;;3.03;;
14074;SDS011;12831;52.392;13.066;2024-01-16T00:26:22;8.27;;;2.85;;
14074;SDS011;12831;52.392;13.066;2024-01-16T00:28:51;4.60;;;2.33;;
14074;SDS011;12831;52.392;13.066;2024-01-16T00:31:18;6.35;;;3.22;;
14074;SDS011;12831;52.392;13.066;2024-01-16T00:33:44;6.70;;;3.70;;
14074;SDS011;12831;52.392;13.066;2024-01-16T00:36:10;5.80;;;3.25;;
14074;SDS011;12831;52.392;13.066;2024-01-16T00:38:36;6.28;;;3.20;;
14074;SDS011;12831;52.392;13.066;2024-01-16T00:41:02;6.43;;;2.78;;
14074;SDS011;12831;52.392;13.066;2024-01-16T00:43:28;6.32;;;2.70;;
14074;SDS011;12831;52.392;13.066;2024-01-16T00:45:54;7.80;;;2.63;;
14074;SDS011;12831;52.392;13.066;2024-01-16T00:48:20;4.50;;;2.20;;
14074;SDS011;12831;52.392;13.066;2024-01-16T00:50:47;10.43;;;2.85;;
14074;SDS011;12831;52.392;13.066;2024-01-16T00:53:18;5.10;;;2.50;;
14074;SDS011;12831;52.392;13.066;2024-01-16T00:55:44;6.15;;;3.30;;
14074;SDS011;12831;52.392;13.066;2024-01-16T00:58:13;3.72;;;2.70;;
14074;SDS011;12831;52.392;13.066;2024-01-16T01:00:39;5.57;;;2.80;;
14074;SDS011;12831;52.392;13.066;2024-01-16T01:03:06;4.80;;;2.88;;
14074;SDS011;12831;52.392;13.066;2024-01-16T01:05:32;7.78;;;3.17;;
14074;SDS011;12831;52.392;13.066;2024-01-16T01:07:58;5.43;;;2.50;;
14074;SDS011;12831;52.392;13.066;2024-01-16T01:10:24;5.88;;;2.92;;
14074;SDS011;12831;52.392;13.066;2024-01-16T01:12:50;8.57;;;3.25;;
14074;SDS011;12831;52.392;13.066;2024-01-16T01:15:20;5.80;;;3.10;;
14074;SDS011;12831;52.392;13.066;2024-01-16T01:17:48;12.82;;;3.25;;
14074;SDS011;12831;52.392;13.066;2024-01-16T01:20:15;7.07;;;2.83;;
14074;SDS011;12831;52.392;13.066;2024-01-16T01:22:41;5.88;;;3.13;;
14074;SDS011;12831;52.392;13.066;2024-01-16T01:25:07;3.13;;;1.60;;
14074;SDS011;12831;52.392;13.066;2024-01-16T01:27:34;2.50;;;0.98;;
14074;SDS011;12831;52.392;13.066;2024-01-16T01:30:00;2.17;;;1.05;;
14074;SDS011;12831;52.392;13.066;2024-01-16T01:32:26;4.28;;;1.15;;
14074;SDS011;12831;52.392;13.066;2024-01-16T01:34:53;2.13;;;0.65;;
14074;SDS011;12831;52.392;13.066;2024-01-16T01:37:19;5.15;;;1.15;;
14074;SDS011;12831;52.392;13.066;2024-01-16T01:39:45;1.63;;;0.80;;
14074;SDS011;12831;52.392;13.066;2024-01-16T01:42:11;2.77;;;0.67;;
14074;SDS011;12831;52.392;13.066;2024-01-16T01:44:37;0.77;;;0.50;;
14074;SDS011;12831;52.392;13.066;2024-01-16T01:47:05;1.93;;;1.70;;
14074;SDS011;12831;52.392;13.066;2024-01-16T01:49:31;3.03;;;0.67;;
14074;SDS011;12831;52.392;13.066;2024-01-16T01:51:58;4.03;;;0.90;;
14074;SDS011;12831;52.392;13.066;2024-01-16T01:54:24;3.07;;;0.73;;
14074;SDS011;12831;52.392;13.066;2024-01-16T01:56:54;3.23;;;1.10;;
14074;SDS011;12831;52.392;13.066;2024-01-16T01:59:20;2.30;;;0.98;;
14074;SDS011;12831;52.392;13.066;2024-01-16T02:01:49;4.70;;;0.93;;
14074;SDS011;12831;52.392;13.066;2024-01-16T02:04:19;3.35;;;1.20;;
14074;SDS011;12831;52.392;13.066;2024-01-16T02:06:45;6.40;;;0.90;;
14074;SDS011;12831;52.392;13.066;2024-01-16T02:09:11;1.47;;;0.97;;
14074;SDS011;12831;52.392;13.066;2024-01-16T02:11:39;3.77;;;1.07;;
14074;SDS011;12831;52.392;13.066;2024-01-16T02:14:05;2.37;;;1.10;;
14074;SDS011;12831;52.392;13.066;2024-01-16T02:16:35;2.47;;;0.97;;
14074;SDS011;12831;52.392;13.066;2024-01-16T02:19:02;2.33;;;0.90;;
14074;SDS011;12831;52.392;13.066;2024-01-16T02:21:28;4.77;;;1.00;;
14074;SDS011;12831;52.392;13.066;2024-01-16T02:23:56;3.03;;;0.70;;
14074;SDS011;12831;52.392;13.066;2024-01-16T02:26:22;2.30;;;0.80;;
14074;SDS011;12831;52.392;13.066;2024-01-16T02:28:49;3.33;;;0.90;;
14074;SDS011;12831;52.392;13.066;2024-01-16T02:31:15;2.27;;;1.17;;
14074;SDS011;12831;52.392;13.066;2024-01-16T02:33:41;3.20;;;1.13;;
14074;SDS011;12831;52.392;13.066;2024-01-16T02:36:07;3.70;;;1.43;;
14074;SDS011;12831;52.392;13.066;2024-01-16T02:38:33;2.73;;;1.30;;
14074;SDS011;12831;52.392;13.066;2024-01-16T02:40:59;3.70;;;0.93;;
14074;SDS011;12831;52.392;13.066;2024-01-16T02:43:25;4.77;;;1.03;;
14074;SDS011;12831;52.392;13.066;2024-01-16T02:45:52;2.95;;;1.20;;
14074;SDS011;12831;52.392;13.066;2024-01-16T02:48:18;2.33;;;0.90;;
14074;SDS011;12831;52.392;13.066;2024-01-16T02:50:45;1.97;;;1.03;;
14074;SDS011;12831;52.392;13.066;2024-01-16T02:53:11;4.07;;;1.33;;
14074;SDS011;12831;52.392;13.066;2024-01-16T02:55:37;2.97;;;0.90;;
14074;SDS011;12831;52.392;13.066;2024-01-16T02:58:03;4.23;;;1.10;;
14074;SDS011;12831;52.392;13.066;2024-01-16T03:00:30;2.80;;;0.80;;
14074;SDS011;12831;52.392;13.066;2024-01-16T03:02:56;6.43;;;1.27;;
14074;SDS011;12831;52.392;13.066;2024-01-16T03:05:23;4.03;;;0.83;;
14074;SDS011;12831;52.392;13.066;2024-01-16T03:07:49;3.30;;;1.30;;
14074;SDS011;12831;52.392;13.066;2024-01-16T03:10:15;4.68;;;1.10;;
14074;SDS011;12831;52.392;13.066;2024-01-16T03:12:41;1.37;;;0.70;;
14074;SDS011;12831;52.392;13.066;2024-01-16T03:15:08;2.40;;;1.00;;
14074;SDS011;12831;52.392;13.066;2024-01-16T03:17:34;4.33;;;0.77;;
14074;SDS011;12831;52.392;13.066;2024-01-16T03:20:00;3.53;;;0.87;;
14074;SDS011;12831;52.392;13.066;2024-01-16T03:22:27;3.63;;;0.95;;
14074;SDS011;12831;52.392;13.066;2024-01-16T03:24:53;3.50;;;1.08;;
14074;SDS011;12831;52.392;13.066;2024-01-16T03:27:19;3.80;;;1.10;;
14074;SDS011;12831;52.392;13.066;2024-01-16T03:29:45;2.23;;;0.93;;
14074;SDS011;12831;52.392;13.066;2024-01-16T03:32:12;4.73;;;0.80;;
14074;SDS011;12831;52.392;13.066;2024-01-16T03:34:38;1.73;;;0.80;;
14074;SDS011;12831;52.392;13.066;2024-01-16T03:37:05;3.53;;;0.82;;
14074;SDS011;12831;52.392;13.066;2024-01-16T03:39:31;2.13;;;0.80;;
14074;SDS011;12831;52.392;13.066;2024-01-16T03:41:57;1.80;;;0.80;;
14074;SDS011;12831;52.392;13.066;2024-01-16T03:44:23;5.67;;;0.73;;
14074;SDS011;12831;52.392;13.066;2024-01-16T03:46:50;2.30;;;0.90;;
14074;SDS011;12831;52.392;13.066;2024-01-16T03:49:16;1.67;;;0.83;;
14074;SDS011;12831;52.392;13.066;2024-01-16T03:51:42;3.23;;;1.30;;
14074;SDS011;12831;52.392;13.066;2024-01-16T03:54:12;1.07;;;0.70;;
14074;SDS011;12831;52.392;13.066;2024-01-16T03:56:39;1.47;;;0.73;;
14074;SDS011;12831;52.392;13.066;2024-01-16T03:59:24;2.97;;;0.97;;
14074;SDS011;12831;52.392;13.066;2024-01-16T04:01:51;6.88;;;1.27;;
14074;SDS011;12831;52.392;13.066;2024-01-16T04:04:17;2.10;;;0.70;;
14074;SDS011;12831;52.392;13.066;2024-01-16T04:06:43;3.93;;;0.90;;
14074;SDS011;12831;52.392;13.066;2024-01-16T04:09:10;3.40;;;1.30;;
14074;SDS011;12831;52.392;13.066;2024-01-16T04:11:36;2.05;;;1.02;;
14074;SDS011;12831;52.392;13.066;2024-01-16T04:14:02;3.40;;;1.83;;
14074;SDS011;12831;52.392;13.066;2024-01-16T04:16:28;8.83;;;1.83;;
14074;SDS011;12831;52.392;13.066;2024-01-16T04:18:54;3.03;;;0.80;;
14074;SDS011;12831;52.392;13.066;2024-01-16T04:21:20;2.33;;;0.90;;
14074;SDS011;12831;52.392;13.066;2024-01-16T04:23:46;3.17;;;1.07;;
14074;SDS011;12831;52.392;13.066;2024-01-16T04:26:15;3.30;;;1.20;;
14074;SDS011;12831;52.392;13.066;2024-01-16T04:31:32;5.05;;;1.48;;
14074;SDS011;12831;52.392;13.066;2024-01-16T04:33:59;3.77;;;1.10;;
14074;SDS011;12831;52.392;13.066;2024-01-16T04:36:26;4.18;;;2.08;;
14074;SDS011;12831;52.392;13.066;2024-01-16T04:38:52;2.73;;;1.37;;
14074;SDS011;12831;52.392;13.066;2024-01-16T04:41:18;2.67;;;1.30;;
14074;SDS011;12831;52.392;13.066;2024-01-16T04:43:47;2.10;;;1.17;;
14074;SDS011;12831;52.392;13.066;2024-01-16T04:46:14;2.73;;;1.30;;
14074;SDS011;12831;52.392;13.066;2024-01-16T04:48:41;2.90;;;1.27;;
14074;SDS011;12831;52.392;13.066;2024-01-16T04:51:08;3.47;;;1.37;;
14074;SDS011;12831;52.392;13.066;2024-01-16T04:53:34;4.83;;;1.20;;
14074;SDS011;12831;52.392;13.066;2024-01-16T04:56:01;4.33;;;1.37;;
14074;SDS011;12831;52.392;13.066;2024-01-16T04:58:30;3.20;;;1.63;;
14074;SDS011;12831;52.392;13.066;2024-01-16T05:00:56;7.30;;;2.33;;
14074;SDS011;12831;52.392;13.066;2024-01-16T05:03:23;3.87;;;1.60;;
14074;SDS011;12831;52.392;13.066;2024-01-16T05:05:50;4.07;;;1.50;;
14074;SDS011;12831;52.392;13.066;2024-01-16T05:08:17;5.43;;;2.17;;
14074;SDS011;12831;52.392;13.066;2024-01-16T05:10:44;4.33;;;1.47;;
14074;SDS011;12831;52.392;13.066;2024-01-16T05:13:11;5.90;;;1.93;;
14074;SDS011;12831;52.392;13.066;2024-01-16T05:15:38;5.90;;;1.80;;
14074;SDS011;12831;52.392;13.066;2024-01-16T05:18:04;4.13;;;2.30;;
14074;SDS011;12831;52.392;13.066;2024-01-16T05:20:31;2.70;;;1.80;;
14074;SDS011;12831;52.392;13.066;2024-01-16T05:22:57;2.73;;;1.40;;
14074;SDS011;12831;52.392;13.066;2024-01-16T05:25:25;2.23;;;1.30;;
14074;SDS011;12831;52.392;13.066;2024-01-16T05:28:09;3.17;;;1.37;;
14074;SDS011;12831;52.392;13.066;2024-01-16T05:30:36;2.50;;;1.63;;
14074;SDS011;12831;52.392;13.066;2024-01-16T05:33:03;5.90;;;2.03;;
14074;SDS011;12831;52.392;13.066;2024-01-16T05:35:37;5.40;;;1.60;;
14074;SDS011;12831;52.392;13.066;2024-01-16T05:38:04;4.67;;;1.67;;
14074;SDS011;12831;52.392;13.066;2024-01-16T05:40:30;6.50;;;2.20;;
14074;SDS011;12831;52.392;13.066;2024-01-16T05:42:58;3.77;;;1.67;;
14074;SDS011;12831;52.392;13.066;2024-01-16T05:45:27;6.70;;;2.10;;
14074;SDS011;12831;52.392;13.066;2024-01-16T05:48:03;9.83;;;2.30;;
14074;SDS011;12831;52.392;13.066;2024-01-16T05:50:34;6.37;;;2.50;;
14074;SDS011;12831;52.392;13.066;2024-01-16T05:53:00;6.80;;;2.00;;
14074;SDS011;12831;52.392;13.066;2024-01-16T05:55:28;4.80;;;2.20;;
14074;SDS011;12831;52.392;13.066;2024-01-16T05:57:56;5.13;;;2.53;;
14074;SDS011;12831;52.392;13.066;2024-01-16T06:00:23;4.33;;;2.83;;
14074;SDS011;12831;52.392;13.066;2024-01-16T06:02:49;4.77;;;3.00;;
14074;SDS011;12831;52.392;13.066;2024-01-16T06:05:16;4.00;;;2.47;;
14074;SDS011;12831;52.392;13.066;2024-01-16T06:07:43;6.80;;;2.90;;
14074;SDS011;12831;52.392;13.066;2024-01-16T06:10:11;4.70;;;2.53;;
14074;SDS011;12831;52.392;13.066;2024-01-16T06:12:52;5.13;;;3.57;;
14074;SDS011;12831;52.392;13.066;2024-01-16T06:15:21;6.33;;;3.00;;
14074;SDS011;12831;52.392;13.066;2024-01-16T06:18:04;3.93;;;1.87;;
14074;SDS011;12831;52.392;13.066;2024-01-16T06:20:34;5.30;;;2.20;;
14074;SDS011;12831;52.392;13.066;2024-01-16T06:26:04;6.47;;;2.97;;
14074;SDS011;12831;52.392;13.066;2024-01-16T22:57:54;10.38;;;5.78;;
14074;SDS011;12831;52.392;13.066;2024-01-16T23:00:20;11.00;;;5.63;;
14074;SDS011;12831;52.392;13.066;2024-01-16T23:02:47;18.40;;;8.67;;
14074;SDS011;12831;52.392;13.066;2024-01-16T23:05:16;16.43;;;10.57;;
14074;SDS011;12831;52.392;13.066;2024-01-16T23:07:43;19.00;;;10.68;;
14074;SDS011;12831;52.392;13.066;2024-01-16T23:10:13;22.10;;;11.10;;
14074;SDS011;12831;52.392;13.066;2024-01-16T23:12:47;18.73;;;8.77;;
14074;SDS011;12831;52.392;13.066;2024-01-16T23:15:15;15.97;;;8.37;;
14074;SDS011;12831;52.392;13.066;2024-01-16T23:17:41;19.47;;;9.67;;
14074;SDS011;12831;52.392;13.066;2024-01-16T23:20:08;15.77;;;9.83;;
14074;SDS011;12831;52.392;13.066;2024-01-16T23:22:42;20.07;;;10.73;;
14074;SDS011;12831;52.392;13.066;2024-01-16T23:25:09;23.00;;;11.30;;
14074;SDS011;12831;52.392;13.066;2024-01-16T23:27:35;25.10;;;12.50;;
14074;SDS011;12831;52.392;13.066;2024-01-16T23:30:03;22.00;;;10.60;;
14074;SDS011;12831;52.392;13.066;2024-01-16T23:32:30;20.17;;;11.77;;
14074;SDS011;12831;52.392;13.066;2024-01-16T23:34:57;22.70;;;11.80;;
14074;SDS011;12831;52.392;13.066;2024-01-16T23:37:24;23.53;;;10.40;;
14074;SDS011;12831;52.392;13.066;2024-01-16T23:39:53;17.57;;;9.00;;
14074;SDS011;12831;52.392;13.066;2024-01-16T23:42:22;25.53;;;11.57;;
14074;SDS011;12831;52.392;13.066;2024-01-16T23:44:50;14.75;;;7.75;;
14074;SDS011;12831;52.392;13.066;2024-01-16T23:47:16;16.20;;;7.10;;
14074;SDS011;12831;52.392;13.066;2024-01-16T23:49:43;17.27;;;8.80;;
14074;SDS011;12831;52.392;13.066;2024-01-16T23:52:09;16.47;;;8.50;;
14074;SDS011;12831;52.392;13.066;2024-01-16T23:54:36;14.83;;;8.50;;
14074;SDS011;12831;52.392;13.066;2024-01-16T23:57:03;15.33;;;8.43;;
14074;SDS011;12831;52.392;13.066;2024-01-16T23:59:30;17.77;;;9.47;;
